sensor_id;sensor_type;location;lat;lon;timestamp;pressure;altitude;pressure_sealevel;temperature;humidity
61010;BME280;46897;55.340;86.082;2022-12-07T00:02:09;102324.91;;;-16.78;70.84
61010;BME280;46897;55.340;86.082;2022-12-07T00:04:39;102431.94;;;-15.95;70.63
61010;BME280;46897;55.340;86.082;2022-12-07T00:07:08;102457.31;;;-15.78;71.04
61010;BME280;46897;55.340;86.082;2022-12-07T00:09:37;102381.50;;;-16.27;70.64
61010;BME280;46897;55.340;86.082;2022-12-07T00:12:09;102429.25;;;-15.88;71.15
61010;BME280;46897;55.340;86.082;2022-12-07T00:14:39;102459.56;;;-15.81;70.53
61010;BME280;46897;55.340;86.082;2022-12-07T00:17:08;102245.31;;;-17.07;70.93
61010;BME280;46897;55.340;86.082;2022-12-07T00:19:38;102443.28;;;-15.74;71.01
61010;BME280;46897;55.340;86.082;2022-12-07T00:22:07;102314.34;;;-16.48;70.84
61010;BME280;46897;55.340;86.082;2022-12-07T00:24:36;102343.91;;;-16.31;70.52
61010;BME280;46897;55.340;86.082;2022-12-07T00:27:05;102247.56;;;-17.01;70.35
61010;BME280;46897;55.340;86.082;2022-12-07T00:29:34;102462.97;;;-15.54;70.90
61010;BME280;46897;55.340;86.082;2022-12-07T00:32:05;102415.97;;;-15.94;70.57
61010;BME280;46897;55.340;86.082;2022-12-07T00:34:35;102299.16;;;-16.57;70.71
61010;BME280;46897;55.340;86.082;2022-12-07T00:37:04;102333.91;;;-16.38;70.44
61010;BME280;46897;55.340;86.082;2022-12-07T00:39:33;102352.97;;;-16.25;70.42
61010;BME280;46897;55.340;86.082;2022-12-07T00:42:03;102399.41;;;-15.99;70.62
61010;BME280;46897;55.340;86.082;2022-12-07T00:44:32;102337.91;;;-16.40;70.55
61010;BME280;46897;55.340;86.082;2022-12-07T00:47:01;102428.22;;;-15.99;70.79
61010;BME280;46897;55.340;86.082;2022-12-07T00:49:32;102372.41;;;-16.16;70.62
61010;BME280;46897;55.340;86.082;2022-12-07T00:52:01;102366.13;;;-16.20;70.72
61010;BME280;46897;55.340;86.082;2022-12-07T00:54:30;102417.91;;;-16.00;70.42
61010;BME280;46897;55.340;86.082;2022-12-07T00:57:00;102480.88;;;-15.53;71.12
61010;BME280;46897;55.340;86.082;2022-12-07T00:59:29;102453.72;;;-15.71;71.14
61010;BME280;46897;55.340;86.082;2022-12-07T01:01:59;102479.84;;;-15.64;70.67
61010;BME280;46897;55.340;86.082;2022-12-07T01:04:28;102471.63;;;-15.52;70.53
61010;BME280;46897;55.340;86.082;2022-12-07T01:06:59;102471.63;;;-15.52;71.05
61010;BME280;46897;55.340;86.082;2022-12-07T01:09:28;102483.56;;;-15.51;70.90
61010;BME280;46897;55.340;86.082;2022-12-07T01:11:58;102306.56;;;-16.67;70.73
61010;BME280;46897;55.340;86.082;2022-12-07T01:14:27;102348.84;;;-16.24;70.46
61010;BME280;46897;55.340;86.082;2022-12-07T01:16:56;102471.63;;;-15.52;70.63
61010;BME280;46897;55.340;86.082;2022-12-07T01:19:26;102477.44;;;-15.53;70.52
61010;BME280;46897;55.340;86.082;2022-12-07T01:21:55;102306.59;;;-16.50;70.81
61010;BME280;46897;55.340;86.082;2022-12-07T01:24:25;102429.13;;;-15.81;70.70
61010;BME280;46897;55.340;86.082;2022-12-07T01:26:55;102283.78;;;-16.85;70.03
61010;BME280;46897;55.340;86.082;2022-12-07T01:29:24;102478.34;;;-15.61;70.65
61010;BME280;46897;55.340;86.082;2022-12-07T01:31:53;102429.84;;;-15.99;70.68
61010;BME280;46897;55.340;86.082;2022-12-07T01:34:22;102467.16;;;-15.64;70.46
61010;BME280;46897;55.340;86.082;2022-12-07T01:36:52;102466.25;;;-15.64;70.75
61010;BME280;46897;55.340;86.082;2022-12-07T01:39:21;102414.94;;;-15.96;70.65
61010;BME280;46897;55.340;86.082;2022-12-07T01:41:52;102299.72;;;-16.59;70.82
61010;BME280;46897;55.340;86.082;2022-12-07T01:44:23;102380.00;;;-16.25;71.03
61010;BME280;46897;55.340;86.082;2022-12-07T01:46:55;102273.47;;;-16.69;70.63
61010;BME280;46897;55.340;86.082;2022-12-07T01:49:31;102284.50;;;-16.77;70.55
61010;BME280;46897;55.340;86.082;2022-12-07T01:52:12;102392.84;;;-16.06;70.90
61010;BME280;46897;55.340;86.082;2022-12-07T01:54:44;102323.16;;;-16.45;70.71
61010;BME280;46897;55.340;86.082;2022-12-07T01:57:17;102404.19;;;-16.02;70.76
61010;BME280;46897;55.340;86.082;2022-12-07T01:59:49;102465.03;;;-15.59;71.09
61010;BME280;46897;55.340;86.082;2022-12-07T02:02:23;102489.53;;;-15.59;70.63
61010;BME280;46897;55.340;86.082;2022-12-07T02:04:54;102420.59;;;-15.90;70.91
61010;BME280;46897;55.340;86.082;2022-12-07T02:07:25;102339.56;;;-16.58;70.87
61010;BME280;46897;55.340;86.082;2022-12-07T02:09:55;102337.03;;;-16.32;70.85
61010;BME280;46897;55.340;86.082;2022-12-07T02:12:27;102475.34;;;-15.57;71.02
61010;BME280;46897;55.340;86.082;2022-12-07T02:14:56;102356.84;;;-16.28;70.12
61010;BME280;46897;55.340;86.082;2022-12-07T02:17:31;102470.00;;;-15.78;71.04
61010;BME280;46897;55.340;86.082;2022-12-07T02:20:13;102450.78;;;-15.76;71.05
61010;BME280;46897;55.340;86.082;2022-12-07T02:29:16;102482.06;;;-15.49;71.37
61010;BME280;46897;55.340;86.082;2022-12-07T02:31:52;102408.97;;;-16.14;71.11
61010;BME280;46897;55.340;86.082;2022-12-07T02:34:30;102340.31;;;-16.33;70.64
61010;BME280;46897;55.340;86.082;2022-12-07T02:37:04;102491.75;;;-15.45;70.85
61010;BME280;46897;55.340;86.082;2022-12-07T02:39:42;102427.19;;;-15.83;70.73
61010;BME280;46897;55.340;86.082;2022-12-07T02:42:17;102392.53;;;-16.00;70.91
61010;BME280;46897;55.340;86.082;2022-12-07T02:44:51;102324.78;;;-16.36;70.74
61010;BME280;46897;55.340;86.082;2022-12-07T02:47:21;102357.91;;;-16.26;70.67
61010;BME280;46897;55.340;86.082;2022-12-07T02:49:53;102254.84;;;-16.78;71.03
61010;BME280;46897;55.340;86.082;2022-12-07T02:52:23;102359.13;;;-16.14;70.81
61010;BME280;46897;55.340;86.082;2022-12-07T02:54:52;102447.72;;;-15.54;70.95
61010;BME280;46897;55.340;86.082;2022-12-07T02:57:33;102442.66;;;-15.72;70.58
61010;BME280;46897;55.340;86.082;2022-12-07T03:00:08;102486.09;;;-15.34;71.19
61010;BME280;46897;55.340;86.082;2022-12-07T03:02:48;102449.50;;;-15.45;70.71
61010;BME280;46897;55.340;86.082;2022-12-07T03:05:42;102497.88;;;-15.08;70.79
61010;BME280;46897;55.340;86.082;2022-12-07T03:08:18;102440.66;;;-15.39;70.91
61010;BME280;46897;55.340;86.082;2022-12-07T03:10:55;102498.44;;;-15.02;70.60
61010;BME280;46897;55.340;86.082;2022-12-07T03:13:31;102464.69;;;-15.18;70.78
61010;BME280;46897;55.340;86.082;2022-12-07T03:16:08;102497.22;;;-14.97;70.78
61010;BME280;46897;55.340;86.082;2022-12-07T03:18:43;102408.00;;;-15.54;71.30
61010;BME280;46897;55.340;86.082;2022-12-07T03:21:17;102352.97;;;-15.90;70.83
61010;BME280;46897;55.340;86.082;2022-12-07T03:23:49;102342.81;;;-15.81;70.84
61010;BME280;46897;55.340;86.082;2022-12-07T03:26:23;102442.63;;;-15.46;70.74
61010;BME280;46897;55.340;86.082;2022-12-07T03:28:56;102466.66;;;-15.16;70.61
61010;BME280;46897;55.340;86.082;2022-12-07T03:31:32;102401.84;;;-15.47;70.55
61010;BME280;46897;55.340;86.082;2022-12-07T03:34:05;102445.69;;;-15.13;70.88
61010;BME280;46897;55.340;86.082;2022-12-07T03:36:40;102380.47;;;-15.49;70.46
61010;BME280;46897;55.340;86.082;2022-12-07T03:39:19;102294.31;;;-16.01;70.46
61010;BME280;46897;55.340;86.082;2022-12-07T03:41:51;102465.97;;;-14.96;70.19
61010;BME280;46897;55.340;86.082;2022-12-07T03:44:22;102510.13;;;-14.59;71.09
61010;BME280;46897;55.340;86.082;2022-12-07T03:47:01;102451.13;;;-14.82;70.74
61010;BME280;46897;55.340;86.082;2022-12-07T03:49:37;102504.75;;;-14.43;70.97
61010;BME280;46897;55.340;86.082;2022-12-07T03:52:16;102495.50;;;-14.42;70.70
61010;BME280;46897;55.340;86.082;2022-12-07T03:54:53;102539.13;;;-14.29;70.87
61010;BME280;46897;55.340;86.082;2022-12-07T03:57:26;102355.34;;;-15.29;70.49
61010;BME280;46897;55.340;86.082;2022-12-07T03:59:57;102430.16;;;-14.80;70.46
61010;BME280;46897;55.340;86.082;2022-12-07T04:02:30;102501.91;;;-14.10;70.72
61010;BME280;46897;55.340;86.082;2022-12-07T04:04:59;102491.16;;;-14.16;70.19
61010;BME280;46897;55.340;86.082;2022-12-07T04:07:29;102385.81;;;-14.65;70.62
61010;BME280;46897;55.340;86.082;2022-12-07T04:09:58;102500.63;;;-13.96;70.23
61010;BME280;46897;55.340;86.082;2022-12-07T04:12:28;102461.22;;;-14.18;70.51
61010;BME280;46897;55.340;86.082;2022-12-07T04:14:57;102411.66;;;-14.41;70.39
61010;BME280;46897;55.340;86.082;2022-12-07T04:17:27;102277.41;;;-15.47;70.36
61010;BME280;46897;55.340;86.082;2022-12-07T04:19:58;102324.75;;;-14.83;70.16
61010;BME280;46897;55.340;86.082;2022-12-07T04:22:27;102436.59;;;-14.28;70.22
61010;BME280;46897;55.340;86.082;2022-12-07T04:24:57;102348.09;;;-14.88;69.66
61010;BME280;46897;55.340;86.082;2022-12-07T04:27:27;102356.53;;;-14.70;70.19
61010;BME280;46897;55.340;86.082;2022-12-07T04:29:57;102353.53;;;-14.66;70.29
61010;BME280;46897;55.340;86.082;2022-12-07T04:32:30;102484.53;;;-14.14;70.20
61010;BME280;46897;55.340;86.082;2022-12-07T04:35:03;102455.41;;;-14.17;70.35
61010;BME280;46897;55.340;86.082;2022-12-07T04:37:33;102445.63;;;-14.13;70.61
61010;BME280;46897;55.340;86.082;2022-12-07T04:40:10;102504.97;;;-13.76;70.18
61010;BME280;46897;55.340;86.082;2022-12-07T04:42:42;102459.44;;;-14.00;69.91
61010;BME280;46897;55.340;86.082;2022-12-07T04:45:12;102504.63;;;-13.70;69.99
61010;BME280;46897;55.340;86.082;2022-12-07T04:47:41;102505.50;;;-13.70;69.89
61010;BME280;46897;55.340;86.082;2022-12-07T04:50:11;102509.22;;;-13.66;69.81
61010;BME280;46897;55.340;86.082;2022-12-07T04:52:41;102499.19;;;-13.64;70.33
61010;BME280;46897;55.340;86.082;2022-12-07T04:55:10;102521.63;;;-13.60;70.01
61010;BME280;46897;55.340;86.082;2022-12-07T04:57:40;102471.72;;;-13.77;69.89
61010;BME280;46897;55.340;86.082;2022-12-07T05:00:10;102498.56;;;-13.62;70.21
61010;BME280;46897;55.340;86.082;2022-12-07T05:02:39;102462.84;;;-13.91;69.89
61010;BME280;46897;55.340;86.082;2022-12-07T05:05:09;102396.72;;;-14.19;69.96
61010;BME280;46897;55.340;86.082;2022-12-07T05:07:39;102492.44;;;-13.64;70.09
61010;BME280;46897;55.340;86.082;2022-12-07T05:10:09;102459.75;;;-13.78;69.66
61010;BME280;46897;55.340;86.082;2022-12-07T05:12:39;102471.91;;;-13.66;70.06
61010;BME280;46897;55.340;86.082;2022-12-07T05:15:09;102507.22;;;-13.41;70.01
61010;BME280;46897;55.340;86.082;2022-12-07T05:17:38;102463.81;;;-13.61;69.76
61010;BME280;46897;55.340;86.082;2022-12-07T05:20:08;102500.56;;;-13.30;70.17
61010;BME280;46897;55.340;86.082;2022-12-07T05:22:39;102442.72;;;-13.50;69.62
61010;BME280;46897;55.340;86.082;2022-12-07T05:25:09;102472.13;;;-13.24;70.16
61010;BME280;46897;55.340;86.082;2022-12-07T05:27:38;102504.47;;;-13.04;69.72
61010;BME280;46897;55.340;86.082;2022-12-07T05:30:08;102420.44;;;-13.42;69.72
61010;BME280;46897;55.340;86.082;2022-12-07T05:32:38;102410.41;;;-13.41;69.54
61010;BME280;46897;55.340;86.082;2022-12-07T05:35:10;102489.84;;;-12.87;70.02
61010;BME280;46897;55.340;86.082;2022-12-07T05:37:40;102423.09;;;-13.12;69.71
61010;BME280;46897;55.340;86.082;2022-12-07T05:40:10;102517.19;;;-12.75;69.18
61010;BME280;46897;55.340;86.082;2022-12-07T05:42:40;102420.53;;;-13.12;69.38
61010;BME280;46897;55.340;86.082;2022-12-07T05:45:10;102477.53;;;-12.72;69.29
61010;BME280;46897;55.340;86.082;2022-12-07T05:47:40;102417.13;;;-13.02;69.45
61010;BME280;46897;55.340;86.082;2022-12-07T05:50:10;102480.75;;;-12.64;69.04
61010;BME280;46897;55.340;86.082;2022-12-07T05:52:41;102492.13;;;-12.60;69.09
61010;BME280;46897;55.340;86.082;2022-12-07T05:55:11;102499.34;;;-12.65;69.33
61010;BME280;46897;55.340;86.082;2022-12-07T05:57:40;102311.19;;;-13.69;68.55
61010;BME280;46897;55.340;86.082;2022-12-07T06:00:30;102480.31;;;-12.79;68.46
61010;BME280;46897;55.340;86.082;2022-12-07T06:02:58;102445.81;;;-13.04;68.96
61010;BME280;46897;55.340;86.082;2022-12-07T06:05:27;102445.53;;;-13.08;68.56
61010;BME280;46897;55.340;86.082;2022-12-07T06:07:58;102451.78;;;-13.14;68.41
61010;BME280;46897;55.340;86.082;2022-12-07T06:10:32;102471.59;;;-13.01;68.09
61010;BME280;46897;55.340;86.082;2022-12-07T06:13:02;102472.69;;;-13.08;68.19
61010;BME280;46897;55.340;86.082;2022-12-07T06:15:30;102487.50;;;-13.04;68.51
61010;BME280;46897;55.340;86.082;2022-12-07T06:17:59;102489.03;;;-13.06;68.66
61010;BME280;46897;55.340;86.082;2022-12-07T06:20:28;102298.84;;;-14.41;68.31
61010;BME280;46897;55.340;86.082;2022-12-07T06:22:59;102478.28;;;-13.12;67.98
61010;BME280;46897;55.340;86.082;2022-12-07T06:25:28;102482.38;;;-13.14;68.55
61010;BME280;46897;55.340;86.082;2022-12-07T06:27:58;102233.72;;;-14.69;68.07
61010;BME280;46897;55.340;86.082;2022-12-07T06:30:28;102452.34;;;-13.27;68.65
61010;BME280;46897;55.340;86.082;2022-12-07T06:32:57;102465.16;;;-13.17;68.75
61010;BME280;46897;55.340;86.082;2022-12-07T06:35:26;102458.69;;;-13.13;68.76
61010;BME280;46897;55.340;86.082;2022-12-07T06:37:56;102448.19;;;-13.16;68.81
61010;BME280;46897;55.340;86.082;2022-12-07T06:40:26;102410.31;;;-13.32;68.75
61010;BME280;46897;55.340;86.082;2022-12-07T06:42:55;102405.59;;;-13.28;68.50
61010;BME280;46897;55.340;86.082;2022-12-07T06:45:25;102462.44;;;-12.89;68.44
61010;BME280;46897;55.340;86.082;2022-12-07T06:47:56;102460.28;;;-12.84;68.54
61010;BME280;46897;55.340;86.082;2022-12-07T06:50:26;102477.91;;;-12.77;68.54
61010;BME280;46897;55.340;86.082;2022-12-07T06:52:55;102422.47;;;-13.09;68.53
61010;BME280;46897;55.340;86.082;2022-12-07T06:55:26;102369.50;;;-13.42;68.44
61010;BME280;46897;55.340;86.082;2022-12-07T06:57:55;102455.28;;;-12.93;68.15
61010;BME280;46897;55.340;86.082;2022-12-07T07:00:25;102484.66;;;-12.78;68.00
61010;BME280;46897;55.340;86.082;2022-12-07T07:02:54;102472.44;;;-12.72;67.99
61010;BME280;46897;55.340;86.082;2022-12-07T07:05:23;102447.88;;;-12.90;68.06
61010;BME280;46897;55.340;86.082;2022-12-07T07:07:53;102471.19;;;-12.67;68.21
61010;BME280;46897;55.340;86.082;2022-12-07T07:10:44;102457.28;;;-12.70;68.15
61010;BME280;46897;55.340;86.082;2022-12-07T07:13:14;102436.56;;;-12.83;67.56
61010;BME280;46897;55.340;86.082;2022-12-07T07:15:43;102485.72;;;-12.66;68.17
61010;BME280;46897;55.340;86.082;2022-12-07T07:18:12;102479.50;;;-12.59;67.93
61010;BME280;46897;55.340;86.082;2022-12-07T07:20:42;102464.56;;;-12.54;68.73
61010;BME280;46897;55.340;86.082;2022-12-07T07:23:11;102374.06;;;-12.99;67.97
61010;BME280;46897;55.340;86.082;2022-12-07T07:25:40;102457.69;;;-12.55;67.79
61010;BME280;46897;55.340;86.082;2022-12-07T07:28:14;102453.19;;;-12.58;68.37
61010;BME280;46897;55.340;86.082;2022-12-07T07:30:44;102360.38;;;-13.20;68.15
61010;BME280;46897;55.340;86.082;2022-12-07T07:33:13;102401.09;;;-13.01;67.90
61010;BME280;46897;55.340;86.082;2022-12-07T07:35:45;102453.13;;;-12.89;67.95
61010;BME280;46897;55.340;86.082;2022-12-07T07:38:15;102462.06;;;-12.83;68.07
61010;BME280;46897;55.340;86.082;2022-12-07T07:40:46;102473.28;;;-12.92;67.93
61010;BME280;46897;55.340;86.082;2022-12-07T07:43:17;102462.28;;;-13.01;67.59
61010;BME280;46897;55.340;86.082;2022-12-07T07:45:47;102467.34;;;-13.11;68.06
61010;BME280;46897;55.340;86.082;2022-12-07T07:48:19;102387.19;;;-13.73;67.54
61010;BME280;46897;55.340;86.082;2022-12-07T07:50:50;102472.38;;;-13.32;68.08
61010;BME280;46897;55.340;86.082;2022-12-07T07:53:19;102444.13;;;-13.54;68.02
61010;BME280;46897;55.340;86.082;2022-12-07T07:55:51;102452.66;;;-13.53;67.20
61010;BME280;46897;55.340;86.082;2022-12-07T07:58:24;102471.75;;;-13.48;67.72
61010;BME280;46897;55.340;86.082;2022-12-07T08:00:53;102461.38;;;-13.60;67.61
61010;BME280;46897;55.340;86.082;2022-12-07T08:03:23;102469.44;;;-13.55;67.90
61010;BME280;46897;55.340;86.082;2022-12-07T08:05:52;102478.13;;;-13.53;67.85
61010;BME280;46897;55.340;86.082;2022-12-07T08:08:23;102397.63;;;-13.99;68.00
61010;BME280;46897;55.340;86.082;2022-12-07T08:10:53;102365.84;;;-14.32;68.16
61010;BME280;46897;55.340;86.082;2022-12-07T08:13:24;102285.75;;;-14.65;67.90
61010;BME280;46897;55.340;86.082;2022-12-07T08:15:58;102386.13;;;-14.05;67.52
61010;BME280;46897;55.340;86.082;2022-12-07T08:18:28;102456.78;;;-13.64;67.87
61010;BME280;46897;55.340;86.082;2022-12-07T08:20:59;102457.66;;;-13.63;67.64
61010;BME280;46897;55.340;86.082;2022-12-07T08:23:29;102449.56;;;-13.59;67.87
61010;BME280;46897;55.340;86.082;2022-12-07T08:26:08;102435.38;;;-13.66;67.64
61010;BME280;46897;55.340;86.082;2022-12-07T08:28:42;102409.22;;;-13.93;68.21
61010;BME280;46897;55.340;86.082;2022-12-07T08:31:15;102374.66;;;-14.10;67.75
61010;BME280;46897;55.340;86.082;2022-12-07T08:33:45;102420.88;;;-13.86;67.97
61010;BME280;46897;55.340;86.082;2022-12-07T08:36:15;102431.94;;;-13.86;68.16
61010;BME280;46897;55.340;86.082;2022-12-07T08:38:46;102445.06;;;-13.81;68.09
61010;BME280;46897;55.340;86.082;2022-12-07T08:41:36;102439.44;;;-13.87;67.94
61010;BME280;46897;55.340;86.082;2022-12-07T08:44:07;102426.34;;;-14.00;67.77
61010;BME280;46897;55.340;86.082;2022-12-07T08:46:38;102438.56;;;-13.88;68.16
61010;BME280;46897;55.340;86.082;2022-12-07T08:49:11;102441.25;;;-13.86;68.17
61010;BME280;46897;55.340;86.082;2022-12-07T08:51:42;102394.31;;;-14.17;68.06
61010;BME280;46897;55.340;86.082;2022-12-07T08:54:14;102434.50;;;-13.86;68.60
61010;BME280;46897;55.340;86.082;2022-12-07T08:56:46;102442.28;;;-13.84;68.17
61010;BME280;46897;55.340;86.082;2022-12-07T08:59:28;102441.50;;;-13.83;68.01
61010;BME280;46897;55.340;86.082;2022-12-07T09:01:57;102443.78;;;-13.86;68.36
61010;BME280;46897;55.340;86.082;2022-12-07T09:04:27;102449.63;;;-13.87;68.44
61010;BME280;46897;55.340;86.082;2022-12-07T09:06:57;102452.94;;;-13.88;68.50
61010;BME280;46897;55.340;86.082;2022-12-07T09:09:26;102444.28;;;-13.90;68.50
61010;BME280;46897;55.340;86.082;2022-12-07T09:11:55;102449.69;;;-13.96;68.86
61010;BME280;46897;55.340;86.082;2022-12-07T09:14:29;102271.31;;;-15.21;68.83
61010;BME280;46897;55.340;86.082;2022-12-07T09:17:05;102430.53;;;-14.20;68.69
61010;BME280;46897;55.340;86.082;2022-12-07T09:19:35;102328.25;;;-14.92;68.61
61010;BME280;46897;55.340;86.082;2022-12-07T09:22:04;102455.44;;;-14.26;68.75
61010;BME280;46897;55.340;86.082;2022-12-07T09:24:37;102413.81;;;-14.46;69.08
61010;BME280;46897;55.340;86.082;2022-12-07T09:27:07;102306.69;;;-15.14;68.43
61010;BME280;46897;55.340;86.082;2022-12-07T09:29:39;102407.63;;;-14.86;68.67
61010;BME280;46897;55.340;86.082;2022-12-07T09:32:13;102313.88;;;-15.47;68.54
61010;BME280;46897;55.340;86.082;2022-12-07T09:34:43;102441.91;;;-14.63;68.82
61010;BME280;46897;55.340;86.082;2022-12-07T09:37:12;102475.53;;;-14.57;68.97
61010;BME280;46897;55.340;86.082;2022-12-07T09:39:42;102463.91;;;-14.63;68.96
61010;BME280;46897;55.340;86.082;2022-12-07T09:42:27;102300.91;;;-15.58;68.95
61010;BME280;46897;55.340;86.082;2022-12-07T09:45:00;102202.50;;;-16.42;68.80
61010;BME280;46897;55.340;86.082;2022-12-07T09:47:31;102246.31;;;-16.26;68.79
61010;BME280;46897;55.340;86.082;2022-12-07T09:50:13;102476.94;;;-14.69;69.10
61010;BME280;46897;55.340;86.082;2022-12-07T09:52:43;102420.94;;;-14.88;68.85
61010;BME280;46897;55.340;86.082;2022-12-07T09:55:16;102478.56;;;-14.70;69.57
61010;BME280;46897;55.340;86.082;2022-12-07T09:57:49;102360.09;;;-15.32;69.65
61010;BME280;46897;55.340;86.082;2022-12-07T10:00:22;102300.28;;;-15.83;69.54
61010;BME280;46897;55.340;86.082;2022-12-07T10:02:55;102178.59;;;-16.27;69.48
61010;BME280;46897;55.340;86.082;2022-12-07T10:05:30;102416.19;;;-14.94;69.51
61010;BME280;46897;55.340;86.082;2022-12-07T10:08:07;102395.28;;;-15.09;69.72
61010;BME280;46897;55.340;86.082;2022-12-07T10:10:40;102412.31;;;-14.99;69.87
61010;BME280;46897;55.340;86.082;2022-12-07T10:13:33;102423.06;;;-14.93;69.38
61010;BME280;46897;55.340;86.082;2022-12-07T10:16:32;102441.59;;;-14.85;69.58
61010;BME280;46897;55.340;86.082;2022-12-07T10:19:26;102470.53;;;-14.74;69.21
61010;BME280;46897;55.340;86.082;2022-12-07T10:22:09;102354.25;;;-15.58;69.45
61010;BME280;46897;55.340;86.082;2022-12-07T10:24:39;102487.13;;;-14.78;69.55
61010;BME280;46897;55.340;86.082;2022-12-07T10:27:30;102508.84;;;-14.81;69.25
61010;BME280;46897;55.340;86.082;2022-12-07T10:30:12;102237.03;;;-16.17;69.07
61010;BME280;46897;55.340;86.082;2022-12-07T10:32:46;102351.56;;;-15.69;69.83
61010;BME280;46897;55.340;86.082;2022-12-07T10:35:24;102486.63;;;-14.93;69.50
61010;BME280;46897;55.340;86.082;2022-12-07T10:37:53;102472.97;;;-14.93;69.45
61010;BME280;46897;55.340;86.082;2022-12-07T10:40:32;102288.97;;;-16.05;69.61
61010;BME280;46897;55.340;86.082;2022-12-07T10:43:18;102473.19;;;-15.00;69.43
61010;BME280;46897;55.340;86.082;2022-12-07T10:49:03;102408.56;;;-15.39;69.65
61010;BME280;46897;55.340;86.082;2022-12-07T10:51:45;102404.84;;;-15.42;69.57
61010;BME280;46897;55.340;86.082;2022-12-07T10:54:23;102295.84;;;-16.38;69.34
61010;BME280;46897;55.340;86.082;2022-12-07T10:57:09;102442.28;;;-15.22;69.79
61010;BME280;46897;55.340;86.082;2022-12-07T11:00:09;102409.59;;;-15.46;69.64
61010;BME280;46897;55.340;86.082;2022-12-07T11:02:54;102461.69;;;-15.14;69.54
61010;BME280;46897;55.340;86.082;2022-12-07T11:05:42;102416.34;;;-15.46;69.60
61010;BME280;46897;55.340;86.082;2022-12-07T11:08:19;102477.38;;;-15.18;69.45
61010;BME280;46897;55.340;86.082;2022-12-07T11:10:57;102416.97;;;-15.66;69.80
61010;BME280;46897;55.340;86.082;2022-12-07T11:13:41;102339.69;;;-15.96;69.55
61010;BME280;46897;55.340;86.082;2022-12-07T11:16:24;102116.88;;;-17.51;69.41
61010;BME280;46897;55.340;86.082;2022-12-07T11:19:20;102257.22;;;-16.53;69.28
61010;BME280;46897;55.340;86.082;2022-12-07T11:21:58;102477.88;;;-15.40;69.53
61010;BME280;46897;55.340;86.082;2022-12-07T11:24:38;102421.75;;;-15.69;69.49
61010;BME280;46897;55.340;86.082;2022-12-07T11:27:19;102465.06;;;-15.50;69.80
61010;BME280;46897;55.340;86.082;2022-12-07T11:30:13;102466.25;;;-15.55;69.70
61010;BME280;46897;55.340;86.082;2022-12-07T11:32:51;102487.75;;;-15.60;69.36
61010;BME280;46897;55.340;86.082;2022-12-07T11:35:46;102470.88;;;-15.69;69.40
61010;BME280;46897;55.340;86.082;2022-12-07T11:38:33;102401.78;;;-16.18;69.67
61010;BME280;46897;55.340;86.082;2022-12-07T11:41:06;102301.97;;;-16.71;69.60
61010;BME280;46897;55.340;86.082;2022-12-07T11:44:00;102295.25;;;-16.79;69.56
61010;BME280;46897;55.340;86.082;2022-12-07T11:47:02;102439.81;;;-16.27;69.74
61010;BME280;46897;55.340;86.082;2022-12-07T11:49:43;102333.13;;;-16.64;69.92
61010;BME280;46897;55.340;86.082;2022-12-07T11:52:22;102404.47;;;-16.26;69.76
61010;BME280;46897;55.340;86.082;2022-12-07T11:55:19;102482.41;;;-15.81;69.89
61010;BME280;46897;55.340;86.082;2022-12-07T11:57:54;102434.75;;;-16.01;70.01
61010;BME280;46897;55.340;86.082;2022-12-07T12:00:30;102477.34;;;-15.81;70.01
61010;BME280;46897;55.340;86.082;2022-12-07T12:03:29;102395.81;;;-16.45;69.81
61010;BME280;46897;55.340;86.082;2022-12-07T12:06:00;102327.75;;;-16.67;70.03
61010;BME280;46897;55.340;86.082;2022-12-07T12:08:39;102407.16;;;-16.15;69.99
61010;BME280;46897;55.340;86.082;2022-12-07T12:11:44;102490.91;;;-15.72;70.06
61010;BME280;46897;55.340;86.082;2022-12-07T12:14:48;102497.03;;;-15.70;70.36
61010;BME280;46897;55.340;86.082;2022-12-07T12:20:28;102465.50;;;-15.63;70.29
61010;BME280;46897;55.340;86.082;2022-12-07T12:23:01;102477.75;;;-15.50;70.27
61010;BME280;46897;55.340;86.082;2022-12-07T12:25:41;102502.06;;;-15.44;70.65
61010;BME280;46897;55.340;86.082;2022-12-07T12:28:24;102484.16;;;-15.36;70.59
61010;BME280;46897;55.340;86.082;2022-12-07T12:31:11;102150.66;;;-17.42;70.23
61010;BME280;46897;55.340;86.082;2022-12-07T12:33:46;102481.16;;;-15.23;70.57
61010;BME280;46897;55.340;86.082;2022-12-07T12:36:24;102306.31;;;-16.18;70.03
61010;BME280;46897;55.340;86.082;2022-12-07T12:39:10;102373.69;;;-15.76;70.46
61010;BME280;46897;55.340;86.082;2022-12-07T12:41:58;102433.53;;;-15.52;70.29
61010;BME280;46897;55.340;86.082;2022-12-07T12:47:41;102412.59;;;-15.41;70.29
61010;BME280;46897;55.340;86.082;2022-12-07T12:50:17;102482.13;;;-14.95;70.69
61010;BME280;46897;55.340;86.082;2022-12-07T12:53:11;102338.47;;;-15.82;70.50
61010;BME280;46897;55.340;86.082;2022-12-07T12:58:44;102303.28;;;-15.96;70.62
61010;BME280;46897;55.340;86.082;2022-12-07T13:01:46;102301.06;;;-16.28;70.61
61010;BME280;46897;55.340;86.082;2022-12-07T13:07:13;102452.91;;;-15.27;70.59
61010;BME280;46897;55.340;86.082;2022-12-07T13:10:08;102452.78;;;-15.37;70.37
61010;BME280;46897;55.340;86.082;2022-12-07T13:12:56;102456.38;;;-15.35;70.58
61010;BME280;46897;55.340;86.082;2022-12-07T13:15:35;102398.72;;;-15.53;70.34
61010;BME280;46897;55.340;86.082;2022-12-07T13:18:25;102405.88;;;-15.49;70.25
61010;BME280;46897;55.340;86.082;2022-12-07T13:21:42;102471.84;;;-15.14;70.38
61010;BME280;46897;55.340;86.082;2022-12-07T13:24:12;102445.44;;;-15.34;70.18
61010;BME280;46897;55.340;86.082;2022-12-07T13:26:43;102429.66;;;-15.49;70.22
61010;BME280;46897;55.340;86.082;2022-12-07T13:29:14;102448.44;;;-15.38;70.25